Time;durP1;ratioP1;P1;durP2;ratioP2;P2;SDS_P1;SDS_P2;PMS_P1;PMS_P2;Temp;Humidity;BMP_temperature;BMP_pressure;BME280_temperature;BME280_humidity;BME280_pressure;Samples;Min_cycle;Max_cycle;Signal;HPM_P1;HPM_P2
2022/06/12 00:01:41;;;;;;;2.78;2.58;;;18.10;99.90;;;;;;5016874;28;20263;-89
2022/06/12 00:04:10;;;;;;;2.88;2.60;;;18.10;99.90;;;;;;5017112;28;20278;-89
2022/06/12 00:06:38;;;;;;;3.40;2.90;;;18.10;99.90;;;;;;5017132;28;20207;-90
2022/06/12 00:09:06;;;;;;;5.32;2.67;;;18.10;99.90;;;;;;5016660;28;20281;-90
2022/06/12 00:11:35;;;;;;;2.40;2.30;;;18.10;99.90;;;;;;5016268;28;20195;-89
2022/06/12 00:14:05;;;;;;;2.47;2.28;;;18.10;99.90;;;;;;5015878;28;20282;-89
2022/06/12 00:16:35;;;;;;;4.72;2.90;;;18.10;99.90;;;;;;5016858;28;20250;-89
2022/06/12 00:19:05;;;;;;;7.80;3.00;;;18.00;99.90;;;;;;5017066;28;20318;-89
2022/06/12 00:21:34;;;;;;;3.28;2.97;;;18.00;99.90;;;;;;5017214;28;20226;-89
2022/06/12 00:24:06;;;;;;;3.10;2.83;;;18.00;99.90;;;;;;5016413;28;20200;-88
2022/06/12 00:26:37;;;;;;;3.22;2.65;;;17.90;99.90;;;;;;5016523;28;20314;-89
2022/06/12 00:29:09;;;;;;;3.65;3.10;;;17.90;99.90;;;;;;5016041;28;20231;-89
2022/06/12 00:31:41;;;;;;;3.85;2.97;;;17.90;99.90;;;;;;5016439;28;20266;-89
2022/06/12 00:34:12;;;;;;;4.63;2.55;;;17.90;99.90;;;;;;5016118;28;20230;-90
2022/06/12 00:36:41;;;;;;;2.75;2.55;;;17.90;99.90;;;;;;5016856;28;20223;-89
2022/06/12 00:39:10;;;;;;;2.92;2.42;;;17.90;99.90;;;;;;5015468;28;20318;-89
2022/06/12 00:41:40;;;;;;;1.90;1.80;;;17.90;99.90;;;;;;5015521;28;20239;-89
2022/06/12 00:44:12;;;;;;;2.47;2.28;;;17.90;99.90;;;;;;5016615;28;20304;-89
2022/06/12 00:46:47;;;;;;;2.70;2.40;;;18.00;99.90;;;;;;5016883;28;20265;-90
2022/06/12 00:49:21;;;;;;;2.60;2.40;;;18.00;99.90;;;;;;5016112;28;20249;-89
2022/06/12 00:51:52;;;;;;;2.78;2.20;;;18.00;99.90;;;;;;5016136;28;20294;-89
2022/06/12 00:54:22;;;;;;;2.70;2.50;;;18.00;99.90;;;;;;5015823;28;20269;-89
2022/06/12 00:56:53;;;;;;;2.75;2.55;;;17.90;99.90;;;;;;5016306;28;20230;-89
2022/06/12 00:59:33;;;;;;;2.72;2.42;;;17.90;99.90;;;;;;5009761;28;20243;-90
2022/06/12 01:02:02;;;;;;;4.35;2.72;;;17.90;99.90;;;;;;5015859;28;20231;-89
2022/06/12 01:07:22;;;;;;;2.42;2.25;;;17.80;99.90;;;;;;5015916;28;20238;-89
2022/06/12 01:09:53;;;;;;;2.50;2.30;;;17.80;99.90;;;;;;5014571;28;20241;-90
2022/06/12 01:12:25;;;;;;;1.95;1.85;;;17.80;99.90;;;;;;5015709;28;20203;-89
2022/06/12 01:14:58;;;;;;;2.05;1.92;;;17.70;99.90;;;;;;5016141;28;20264;-89
2022/06/12 01:17:28;;;;;;;2.38;2.17;;;17.70;99.90;;;;;;5015796;28;20219;-90
2022/06/12 01:20:00;;;;;;;2.58;2.38;;;17.70;99.90;;;;;;5015761;28;20300;-90
2022/06/12 01:23:12;;;;;;;2.45;2.25;;;17.70;99.90;;;;;;5016029;28;20246;-89
2022/06/12 01:26:20;;;;;;;3.53;2.10;;;17.70;99.90;;;;;;5015921;28;20205;-89
2022/06/12 01:28:55;;;;;;;2.67;2.47;;;17.70;99.90;;;;;;4994133;28;20247;-90
2022/06/12 01:31:45;;;;;;;2.28;2.08;;;17.60;99.90;;;;;;4998684;28;20214;-89
2022/06/12 01:34:26;;;;;;;3.15;2.50;;;17.60;99.90;;;;;;5001182;28;20227;-90
2022/06/12 01:37:03;;;;;;;2.13;1.98;;;17.60;99.90;;;;;;5015212;28;20205;-89
2022/06/12 01:39:43;;;;;;;4.15;2.80;;;17.60;99.90;;;;;;5014817;28;20223;-89
2022/06/12 01:42:21;;;;;;;5.13;2.60;;;17.60;99.90;;;;;;5014584;28;20282;-89
2022/06/12 01:45:00;;;;;;;2.35;2.10;;;17.60;99.90;;;;;;5015321;28;20195;-89
2022/06/12 01:47:36;;;;;;;3.00;2.53;;;17.60;99.90;;;;;;5015594;28;20356;-90
2022/06/12 01:50:13;;;;;;;2.50;2.30;;;17.60;99.90;;;;;;5015131;28;20258;-90
2022/06/12 01:52:52;;;;;;;2.25;2.08;;;17.60;99.90;;;;;;5015596;28;20226;-89
2022/06/12 01:55:29;;;;;;;3.15;2.88;;;17.60;99.90;;;;;;5015217;28;20310;-89
2022/06/12 01:58:06;;;;;;;2.55;2.25;;;17.60;99.90;;;;;;5014631;28;20237;-89
2022/06/12 02:00:38;;;;;;;2.05;1.92;;;17.60;99.90;;;;;;4998856;28;20205;-89
2022/06/12 02:03:13;;;;;;;2.70;2.30;;;17.60;99.90;;;;;;5014882;28;20195;-89
2022/06/12 02:05:46;;;;;;;2.90;2.70;;;17.60;99.90;;;;;;5015311;28;20237;-89
2022/06/12 02:08:20;;;;;;;3.33;2.40;;;17.60;99.90;;;;;;5014927;28;20227;-90
2022/06/12 02:10:52;;;;;;;4.35;3.17;;;17.60;99.90;;;;;;5013807;28;20223;-90
2022/06/12 02:13:23;;;;;;;3.00;2.80;;;17.60;99.90;;;;;;4998382;28;20243;-89
2022/06/12 02:15:58;;;;;;;3.13;2.35;;;17.60;99.90;;;;;;5014179;28;20208;-89
2022/06/12 02:18:34;;;;;;;2.92;2.72;;;17.60;99.90;;;;;;5014806;28;20222;-89
2022/06/12 02:21:09;;;;;;;2.75;2.55;;;17.60;99.90;;;;;;5014328;28;20214;-89
2022/06/12 02:23:43;;;;;;;2.88;2.67;;;17.50;99.90;;;;;;5014629;28;20230;-89
2022/06/12 02:26:15;;;;;;;4.22;3.13;;;17.50;99.90;;;;;;5014318;28;20291;-89
2022/06/12 02:28:47;;;;;;;2.75;2.55;;;17.50;99.90;;;;;;5014361;28;20273;-90
2022/06/12 02:31:22;;;;;;;5.80;3.65;;;17.50;99.90;;;;;;5013929;28;20203;-89
2022/06/12 02:33:56;;;;;;;2.75;2.55;;;17.50;99.90;;;;;;5013523;28;20219;-89
2022/06/12 02:36:28;;;;;;;7.50;3.17;;;17.50;99.90;;;;;;5014226;28;20209;-89
2022/06/12 02:39:01;;;;;;;3.08;2.88;;;17.40;99.90;;;;;;4999675;28;20246;-89
2022/06/12 02:41:34;;;;;;;5.50;4.07;;;17.50;99.90;;;;;;5013626;28;20199;-89
2022/06/12 02:44:08;;;;;;;3.30;3.00;;;17.50;99.90;;;;;;5014262;28;20306;-89
2022/06/12 02:46:45;;;;;;;3.15;2.85;;;17.50;99.90;;;;;;5014501;28;20198;-89
2022/06/12 02:49:15;;;;;;;3.45;3.17;;;17.50;99.90;;;;;;5014386;28;20226;-88
2022/06/12 02:51:52;;;;;;;3.10;2.75;;;17.40;99.90;;;;;;5014062;28;20206;-89
2022/06/12 02:54:31;;;;;;;3.63;3.33;;;17.40;99.90;;;;;;5014010;28;20270;-89
2022/06/12 02:57:11;;;;;;;3.15;2.88;;;17.40;99.90;;;;;;5014487;28;20221;-89
2022/06/12 02:59:52;;;;;;;3.25;2.95;;;17.40;99.90;;;;;;5013853;28;20246;-89
2022/06/12 03:02:29;;;;;;;3.03;2.75;;;17.40;99.90;;;;;;5013693;28;20202;-89
2022/06/12 03:05:03;;;;;;;5.75;3.10;;;17.40;99.90;;;;;;5013859;28;20195;-89
2022/06/12 03:07:31;;;;;;;6.43;3.00;;;17.40;99.90;;;;;;5014230;28;20195;-89
2022/06/12 03:10:04;;;;;;;2.75;2.55;;;17.40;99.90;;;;;;5013478;28;20293;-89
2022/06/12 03:12:33;;;;;;;2.88;2.55;;;17.40;99.90;;;;;;5015074;28;20278;-88
2022/06/12 03:15:22;;;;;;;2.75;2.55;;;17.40;99.90;;;;;;5013738;28;20242;-89
2022/06/12 03:17:52;;;;;;;3.50;3.10;;;17.40;99.90;;;;;;5013603;28;20271;-88
2022/06/12 03:20:23;;;;;;;2.90;2.67;;;17.40;99.90;;;;;;5013511;28;20196;-89
2022/06/12 03:23:01;;;;;;;4.35;3.35;;;17.40;99.90;;;;;;5014089;28;20229;-89
2022/06/12 03:25:38;;;;;;;2.85;2.65;;;17.50;99.90;;;;;;5013141;28;20218;-89
2022/06/12 03:28:12;;;;;;;2.88;2.67;;;17.50;99.90;;;;;;5013607;28;20219;-89
2022/06/12 03:30:47;;;;;;;5.00;3.25;;;17.50;99.90;;;;;;4998061;28;20195;-88
2022/06/12 03:33:24;;;;;;;6.38;3.20;;;17.50;99.90;;;;;;5012344;28;20204;-89
2022/06/12 03:36:00;;;;;;;4.20;2.95;;;17.50;99.90;;;;;;5014780;28;20294;-88
2022/06/12 03:38:36;;;;;;;2.97;2.75;;;17.60;99.90;;;;;;5011834;28;20223;-89
2022/06/12 03:41:14;;;;;;;2.65;2.45;;;17.60;99.90;;;;;;5013868;28;20222;-89
2022/06/12 03:43:51;;;;;;;3.33;3.08;;;17.60;99.90;;;;;;5013682;28;20195;-89
2022/06/12 03:46:26;;;;;;;2.80;2.60;;;17.60;99.90;;;;;;5013641;28;20202;-88
2022/06/12 03:49:05;;;;;;;3.17;2.88;;;17.60;99.90;;;;;;5013432;28;20274;-89
2022/06/12 03:51:40;;;;;;;2.92;2.67;;;17.70;99.90;;;;;;5013495;28;20261;-88
2022/06/12 03:54:16;;;;;;;2.60;2.40;;;17.70;99.90;;;;;;5005243;28;20199;-89
2022/06/12 03:59:39;;;;;;;2.65;2.45;;;17.70;99.90;;;;;;5012477;28;20219;-88
2022/06/12 04:02:11;;;;;;;2.90;2.65;;;17.80;99.90;;;;;;5013203;28;20279;-89
2022/06/12 04:04:44;;;;;;;3.05;2.85;;;17.80;99.90;;;;;;5012639;28;20270;-88
2022/06/12 04:07:16;;;;;;;5.70;2.90;;;17.80;99.90;;;;;;5013227;28;20195;-89
2022/06/12 04:09:47;;;;;;;4.18;3.15;;;17.80;99.90;;;;;;5013245;28;20223;-89
2022/06/12 04:12:22;;;;;;;2.78;2.58;;;17.80;99.90;;;;;;5012689;28;20249;-89
2022/06/12 04:14:57;;;;;;;2.42;2.33;;;17.80;99.90;;;;;;5011916;28;20280;-88
2022/06/12 04:17:26;;;;;;;2.85;2.58;;;17.80;99.90;;;;;;5013876;28;20264;-89
2022/06/12 04:20:04;;;;;;;2.78;2.58;;;17.90;99.90;;;;;;5013268;28;20246;-88
2022/06/12 04:22:45;;;;;;;2.63;2.42;;;17.90;99.90;;;;;;5013273;28;20265;-94
2022/06/12 04:25:29;;;;;;;3.13;2.67;;;17.90;99.90;;;;;;5009966;28;20199;-94
2022/06/12 04:27:58;;;;;;;2.85;2.53;;;18.00;99.90;;;;;;5012316;28;20294;-93
2022/06/12 04:30:30;;;;;;;2.50;2.30;;;18.00;99.90;;;;;;5013059;28;20238;-86
2022/06/12 04:33:24;;;;;;;2.92;2.72;;;18.10;99.90;;;;;;4994358;28;20283;-87
2022/06/12 04:35:57;;;;;;;2.72;2.53;;;18.10;99.90;;;;;;4993264;28;20302;-88
2022/06/12 04:38:27;;;;;;;3.05;2.75;;;18.20;99.90;;;;;;4993510;28;20235;-88
2022/06/12 04:40:57;;;;;;;2.53;2.33;;;18.30;99.90;;;;;;4993433;28;20212;-87
2022/06/12 04:43:25;;;;;;;3.20;2.40;;;18.30;99.90;;;;;;4994608;28;20232;-87
2022/06/12 04:45:54;;;;;;;3.22;3.03;;;18.40;99.90;;;;;;4997012;28;20207;-87
2022/06/12 04:48:35;;;;;;;2.40;2.20;;;18.40;99.90;;;;;;4998137;28;20250;-88
2022/06/12 04:51:06;;;;;;;2.65;2.45;;;18.60;99.90;;;;;;5016570;28;20211;-88
2022/06/12 04:53:35;;;;;;;2.40;2.30;;;18.60;99.90;;;;;;5016889;28;20275;-88
2022/06/12 04:56:04;;;;;;;3.25;3.03;;;18.70;99.90;;;;;;5016152;28;20269;-89
2022/06/12 04:58:33;;;;;;;2.80;2.60;;;18.80;99.90;;;;;;5016090;28;20227;-88
2022/06/12 05:01:02;;;;;;;3.15;2.70;;;18.80;99.90;;;;;;5016325;28;20217;-88
2022/06/12 05:03:31;;;;;;;5.28;2.35;;;18.90;99.90;;;;;;5016561;28;20203;-87
2022/06/12 05:05:59;;;;;;;2.33;2.05;;;19.00;99.90;;;;;;5016027;28;20191;-88
2022/06/12 05:08:29;;;;;;;2.75;2.55;;;19.00;99.90;;;;;;5016089;28;20231;-88
2022/06/12 05:10:57;;;;;;;2.53;2.33;;;19.10;99.90;;;;;;5015666;28;20203;-88
2022/06/12 05:13:25;;;;;;;2.22;1.90;;;19.10;99.90;;;;;;5015517;28;20298;-87
2022/06/12 05:15:55;;;;;;;2.78;2.55;;;19.20;99.90;;;;;;5015794;28;20258;-88
2022/06/12 05:18:23;;;;;;;3.58;2.50;;;19.20;99.90;;;;;;5016062;28;20218;-88
2022/06/12 05:20:52;;;;;;;2.33;2.13;;;19.30;99.90;;;;;;5015718;28;20195;-88
2022/06/12 05:23:21;;;;;;;2.85;2.65;;;19.40;99.90;;;;;;5015605;28;20226;-88
2022/06/12 05:25:51;;;;;;;2.22;2.08;;;19.50;99.90;;;;;;5016337;28;20226;-88
2022/06/12 05:28:26;;;;;;;2.78;2.33;;;19.50;99.90;;;;;;5015826;28;20273;-88
2022/06/12 05:30:55;;;;;;;2.30;2.10;;;19.50;99.90;;;;;;5015232;28;20231;-89
2022/06/12 05:33:23;;;;;;;2.70;2.50;;;19.60;99.90;;;;;;5015216;28;20280;-88
2022/06/12 05:35:51;;;;;;;2.45;1.92;;;19.60;99.90;;;;;;5015444;28;20223;-88
2022/06/12 05:38:20;;;;;;;3.08;2.30;;;19.60;99.90;;;;;;5015448;28;20303;-89
2022/06/12 05:40:49;;;;;;;1.92;1.77;;;19.70;99.90;;;;;;5015351;28;20285;-88
2022/06/12 05:43:18;;;;;;;2.88;2.30;;;19.80;99.90;;;;;;5015001;28;20207;-88
2022/06/12 05:45:46;;;;;;;2.38;2.17;;;19.80;99.90;;;;;;5015554;28;20277;-88
2022/06/12 05:48:18;;;;;;;2.25;2.15;;;19.90;99.90;;;;;;5012416;28;20283;-89
2022/06/12 05:50:51;;;;;;;2.50;2.30;;;20.00;99.90;;;;;;5015148;28;20269;-88
2022/06/12 05:53:21;;;;;;;4.55;2.25;;;20.00;99.90;;;;;;5015494;28;20311;-88
2022/06/12 05:55:52;;;;;;;2.88;2.65;;;20.00;99.90;;;;;;5014560;28;20302;-88
2022/06/12 05:58:23;;;;;;;2.25;2.13;;;20.10;99.90;;;;;;5015357;28;20231;-88
2022/06/12 06:00:52;;;;;;;2.30;2.10;;;20.20;99.90;;;;;;5014831;28;20199;-88
2022/06/12 06:03:26;;;;;;;2.75;2.22;;;20.30;99.90;;;;;;5014796;28;20211;-89
2022/06/12 06:05:55;;;;;;;2.67;2.45;;;20.40;99.90;;;;;;5014824;28;20203;-88
2022/06/12 06:08:23;;;;;;;2.33;2.17;;;20.50;99.90;;;;;;5015048;28;20255;-89
2022/06/12 06:10:53;;;;;;;4.07;2.83;;;20.50;99.90;;;;;;5014420;28;20291;-88
2022/06/12 06:13:22;;;;;;;3.45;3.15;;;20.50;99.90;;;;;;5014700;28;20199;-88
2022/06/12 06:15:51;;;;;;;1.98;1.88;;;20.60;99.90;;;;;;5014516;28;20223;-88
2022/06/12 06:18:20;;;;;;;2.65;2.42;;;20.70;99.90;;;;;;5014158;28;20255;-88
2022/06/12 06:20:49;;;;;;;2.63;2.38;;;20.80;99.90;;;;;;5014467;28;20203;-89
2022/06/12 06:23:18;;;;;;;3.65;2.53;;;20.80;99.90;;;;;;5014881;28;20246;-87
2022/06/12 06:25:46;;;;;;;2.17;2.08;;;20.90;99.90;;;;;;5014493;28;20253;-88
2022/06/12 06:28:16;;;;;;;3.30;2.15;;;21.00;99.90;;;;;;5014476;28;20231;-88
2022/06/12 06:30:49;;;;;;;2.70;2.50;;;21.10;99.90;;;;;;5014584;28;20221;-87
2022/06/12 06:33:17;;;;;;;2.55;2.35;;;21.20;99.90;;;;;;5014168;28;20210;-88
2022/06/12 06:35:46;;;;;;;2.17;2.00;;;21.40;99.90;;;;;;5014190;28;20246;-87
2022/06/12 06:38:14;;;;;;;2.40;2.20;;;21.40;99.90;;;;;;5014361;28;20251;-86
2022/06/12 06:40:43;;;;;;;5.07;2.22;;;21.50;99.90;;;;;;5014519;28;20215;-88
2022/06/12 06:43:12;;;;;;;2.63;2.42;;;21.70;99.90;;;;;;5014318;28;20234;-86
2022/06/12 06:48:29;;;;;;;2.67;2.47;;;21.80;99.90;;;;;;4994909;28;20302;-85
2022/06/12 06:50:57;;;;;;;2.20;2.10;;;21.90;99.90;;;;;;4997974;28;20230;-84
2022/06/12 06:53:26;;;;;;;2.22;2.10;;;22.10;99.90;;;;;;5014175;28;20231;-84
2022/06/12 06:55:54;;;;;;;2.75;2.45;;;22.20;99.90;;;;;;5014097;28;20215;-84
2022/06/12 06:58:25;;;;;;;2.55;2.33;;;22.20;99.90;;;;;;5013829;28;20227;-84
2022/06/12 07:00:55;;;;;;;2.53;2.10;;;22.40;99.90;;;;;;5013668;28;20286;-85
2022/06/12 07:03:24;;;;;;;2.78;2.58;;;22.50;99.90;;;;;;5013964;28;20217;-84
2022/06/12 07:05:53;;;;;;;1.85;1.75;;;22.80;99.90;;;;;;5013900;28;20299;-84
2022/06/12 07:08:23;;;;;;;1.92;1.83;;;23.10;99.90;;;;;;5013167;28;20323;-87
2022/06/12 07:10:53;;;;;;;2.83;2.63;;;23.20;99.90;;;;;;5013387;28;20245;-79
2022/06/12 07:13:22;;;;;;;2.13;1.80;;;23.40;99.90;;;;;;5013940;28;20250;-82
2022/06/12 07:15:55;;;;;;;2.00;1.90;;;23.60;99.90;;;;;;5013467;28;20203;-81
2022/06/12 07:18:24;;;;;;;4.68;2.72;;;23.90;99.90;;;;;;5019977;28;20297;-82
2022/06/12 07:20:55;;;;;;;3.97;2.08;;;24.50;99.90;;;;;;5022766;28;20226;-84
2022/06/12 07:23:25;;;;;;;1.65;1.55;;;25.20;99.90;;;;;;5007207;28;20289;-82
2022/06/12 07:25:58;;;;;;;2.05;1.73;;;26.30;99.90;;;;;;5020583;28;20203;-85
2022/06/12 07:28:27;;;;;;;2.05;1.95;;;27.20;99.90;;;;;;5013759;28;20286;-80
2022/06/12 07:30:58;;;;;;;2.08;1.98;;;27.80;97.60;;;;;;5013541;28;20286;-80
2022/06/12 07:33:26;;;;;;;2.20;2.10;;;28.40;96.10;;;;;;5016483;28;20194;-80
2022/06/12 07:35:54;;;;;;;1.65;1.55;;;29.00;94.60;;;;;;5012016;28;20203;-85
2022/06/12 07:38:26;;;;;;;1.65;1.55;;;29.10;92.90;;;;;;5005855;28;20307;-85
2022/06/12 07:40:59;;;;;;;2.97;1.73;;;29.40;91.20;;;;;;5013495;28;20207;-92
2022/06/12 07:43:33;;;;;;;1.77;1.67;;;30.00;90.00;;;;;;5013002;28;20223;-87
2022/06/12 07:46:11;;;;;;;3.17;1.73;;;29.50;87.60;;;;;;5013675;28;20248;-84
2022/06/12 07:48:40;;;;;;;2.35;1.80;;;29.60;88.10;;;;;;5013158;28;20215;-84
2022/06/12 07:51:14;;;;;;;1.83;1.65;;;29.70;86.60;;;;;;5005117;28;20270;-84
2022/06/12 07:53:44;;;;;;;1.80;1.70;;;30.90;86.60;;;;;;5013034;28;20233;-86
2022/06/12 07:56:15;;;;;;;1.90;1.80;;;32.90;86.40;;;;;;5013514;28;20194;-95
2022/06/12 07:59:16;;;;;;;2.50;1.55;;;33.00;76.30;;;;;;5013179;28;20214;-95
2022/06/12 08:02:06;;;;;;;2.03;1.70;;;33.50;76.10;;;;;;5008603;28;20219;-95
2022/06/12 08:04:43;;;;;;;1.60;1.50;;;34.30;73.10;;;;;;5012679;28;20218;-95
2022/06/12 08:07:47;;;;;;;2.00;1.67;;;35.00;69.10;;;;;;5015962;28;20203;-96
2022/06/12 08:10:18;;;;;;;1.60;1.50;;;35.50;67.60;;;;;;5004245;28;20206;-96
2022/06/12 08:13:00;;;;;;;1.83;1.70;;;35.60;67.10;;;;;;5015607;28;20286;-94
2022/06/12 08:16:41;;;;;;;1.70;1.60;;;35.20;65.80;;;;;;5018868;28;20201;-96
2022/06/12 10:03:18;;;;;;;1.20;1.20;;;37.10;45.80;;;;;;5029032;28;20214;-93
2022/06/12 10:06:02;;;;;;;1.98;1.80;;;37.10;47.20;;;;;;5036282;28;20198;-92
2022/06/12 10:08:53;;;;;;;;;;;;;;;;;;;;;
2022/06/12 10:11:27;;;;;;;2.30;1.73;;;36.70;49.60;;;;;;5036381;28;20202;-92
2022/06/12 10:14:02;;;;;;;1.58;1.50;;;37.20;54.30;;;;;;5036388;28;20194;-91
2022/06/12 10:16:37;;;;;;;1.80;1.70;;;37.40;52.40;;;;;;5036591;28;20227;-92
2022/06/12 10:19:32;;;;;;;2.10;1.92;;;37.80;50.60;;;;;;5036683;28;20221;-93
2022/06/12 10:24:55;;;;;;;2.40;2.20;;;37.90;46.60;;;;;;5015611;28;20206;-93
2022/06/12 10:27:24;;;;;;;2.38;1.92;;;37.80;49.20;;;;;;5014535;28;20202;-94
2022/06/12 10:29:55;;;;;;;2.08;1.98;;;37.80;48.80;;;;;;5030164;28;20242;-93
2022/06/12 10:32:28;;;;;;;1.95;1.85;;;37.60;49.80;;;;;;5034134;28;20281;-94
2022/06/12 10:35:14;;;;;;;2.33;2.03;;;37.80;53.20;;;;;;5034301;28;20244;-94
2022/06/12 10:37:42;;;;;;;13.05;2.20;;;37.70;48.60;;;;;;5033529;28;20297;-94
2022/06/12 10:40:18;;;;;;;2.95;1.83;;;37.00;50.90;;;;;;5046041;28;20201;-95
2022/06/12 10:42:51;;;;;;;1.90;1.80;;;36.60;52.60;;;;;;5052951;28;20200;-93
2022/06/12 10:45:25;;;;;;;5.07;1.83;;;36.50;50.10;;;;;;5047364;28;20230;-94
2022/06/12 10:48:02;;;;;;;1.80;1.70;;;36.70;50.80;;;;;;5042533;28;20190;-94
2022/06/12 10:50:34;;;;;;;4.63;2.60;;;36.60;50.80;;;;;;5040249;28;20222;-89
2022/06/12 10:53:13;;;;;;;2.40;2.20;;;36.60;51.20;;;;;;5053186;28;20209;-91
2022/06/12 10:55:54;;;;;;;1.88;1.77;;;36.50;46.70;;;;;;5045441;28;20190;-93
2022/06/12 10:59:09;;;;;;;3.38;2.15;;;36.20;47.30;;;;;;5052279;28;20247;-92
2022/06/12 11:01:48;;;;;;;2.58;1.90;;;36.30;51.30;;;;;;5048056;28;20205;-94
2022/06/12 11:04:34;;;;;;;1.67;1.58;;;36.00;51.10;;;;;;5051359;28;20207;-90
2022/06/12 11:07:17;;;;;;;4.20;2.33;;;36.30;51.70;;;;;;5053459;28;20251;-92
2022/06/12 11:10:12;;;;;;;2.60;2.40;;;36.50;50.90;;;;;;5052637;28;20221;-93
2022/06/12 11:12:57;;;;;;;2.00;1.83;;;36.70;54.70;;;;;;5049620;28;20197;-93
2022/06/12 11:15:41;;;;;;;2.20;2.00;;;37.00;52.30;;;;;;5053223;28;20292;-92
2022/06/12 11:18:27;;;;;;;2.15;1.88;;;37.20;49.50;;;;;;5050750;28;20225;-91
2022/06/12 11:21:05;;;;;;;2.42;1.90;;;37.20;48.50;;;;;;5053124;28;20233;-92
2022/06/12 11:23:55;;;;;;;3.10;1.95;;;37.00;47.40;;;;;;5053527;28;20201;-92
2022/06/12 11:26:36;;;;;;;3.50;1.80;;;36.50;46.60;;;;;;5053550;28;20251;-92
2022/06/12 11:29:25;;;;;;;2.40;2.05;;;35.80;48.50;;;;;;5053165;28;20224;-92
2022/06/12 11:32:06;;;;;;;2.83;1.80;;;36.00;50.40;;;;;;5052974;28;20239;-93
2022/06/12 11:34:55;;;;;;;2.30;1.65;;;36.50;50.40;;;;;;5052950;28;20204;-92
2022/06/12 11:37:44;;;;;;;1.98;1.83;;;36.60;47.90;;;;;;5052792;28;20243;-92
2022/06/12 11:40:25;;;;;;;2.60;2.17;;;36.30;50.00;;;;;;5053213;28;20197;-92
2022/06/12 11:43:08;;;;;;;2.72;2.47;;;35.60;49.30;;;;;;5053481;28;20376;-91
2022/06/12 11:46:00;;;;;;;1.77;1.67;;;35.50;49.90;;;;;;5049320;28;20196;-91
2022/06/12 11:48:45;;;;;;;2.78;2.45;;;35.20;50.60;;;;;;5052613;28;20247;-92
2022/06/12 11:51:26;;;;;;;1.98;1.88;;;34.90;51.80;;;;;;5052796;28;20208;-91
2022/06/12 11:54:07;;;;;;;2.00;1.90;;;35.10;52.90;;;;;;5054309;28;20201;-91
2022/06/12 11:56:47;;;;;;;1.83;1.73;;;35.50;53.20;;;;;;5051051;28;20206;-92
2022/06/12 11:59:27;;;;;;;2.30;1.92;;;35.70;49.30;;;;;;5056533;28;20229;-92
2022/06/12 12:02:08;;;;;;;1.65;1.55;;;35.70;49.50;;;;;;5057047;28;20282;-93
2022/06/12 12:05:04;;;;;;;2.03;1.92;;;35.90;50.90;;;;;;5056378;28;20251;-93
2022/06/12 12:07:49;;;;;;;2.13;1.92;;;36.20;47.90;;;;;;5057355;28;20257;-92
2022/06/12 12:10:38;;;;;;;2.40;2.20;;;36.10;47.50;;;;;;5056447;28;20197;-92
2022/06/12 12:13:12;;;;;;;2.60;2.13;;;36.20;50.30;;;;;;5052751;28;20205;-92
2022/06/12 12:15:47;;;;;;;2.35;1.95;;;36.40;49.40;;;;;;5056976;28;20200;-92
2022/06/12 12:18:22;;;;;;;2.25;2.05;;;36.50;47.10;;;;;;5056463;28;20244;-91
2022/06/12 12:20:52;;;;;;;2.40;2.20;;;36.30;47.10;;;;;;5056299;28;20216;-91
2022/06/12 12:23:25;;;;;;;2.30;2.15;;;36.40;48.90;;;;;;5056611;28;20197;-92
2022/06/12 12:25:59;;;;;;;3.92;2.20;;;36.50;50.10;;;;;;5055875;28;20215;-92
2022/06/12 12:28:34;;;;;;;1.95;1.73;;;36.60;46.30;;;;;;5056908;28;20227;-92
2022/06/12 12:31:06;;;;;;;3.15;1.70;;;36.40;50.20;;;;;;5055967;28;20304;-92
2022/06/12 12:33:35;;;;;;;4.43;2.53;;;35.50;44.90;;;;;;5056855;28;20208;-90
2022/06/12 12:41:45;;;;;;;2.03;1.92;;;34.80;47.80;;;;;;5056457;28;20228;-91
2022/06/12 12:44:29;;;;;;;1.88;1.77;;;34.70;48.40;;;;;;5055571;28;20209;-95
2022/06/12 12:46:58;;;;;;;2.03;1.88;;;34.70;50.20;;;;;;5056162;28;20228;-93
2022/06/12 12:49:29;;;;;;;1.88;1.45;;;34.80;48.70;;;;;;5055708;28;20309;-90
2022/06/12 12:52:10;;;;;;;2.00;1.80;;;34.60;47.40;;;;;;5041395;28;20278;-92
2022/06/12 12:54:46;;;;;;;2.45;2.10;;;34.40;49.50;;;;;;5055626;28;20190;-91
2022/06/12 12:57:16;;;;;;;2.75;2.50;;;34.40;51.80;;;;;;5056170;28;20205;-92
2022/06/12 12:59:48;;;;;;;6.90;2.33;;;34.10;47.90;;;;;;5054475;28;20237;-92
2022/06/12 13:02:23;;;;;;;1.80;1.70;;;34.10;48.60;;;;;;5055589;28;20328;-92
2022/06/12 13:04:53;;;;;;;1.83;1.73;;;34.20;49.40;;;;;;5055481;28;20216;-91
2022/06/12 13:07:38;;;;;;;1.52;1.42;;;34.20;51.60;;;;;;5055113;28;20219;-93
2022/06/12 13:10:31;;;;;;;1.45;1.35;;;34.40;50.90;;;;;;5052660;28;20248;-92
2022/06/12 13:13:27;;;;;;;3.05;2.03;;;33.70;48.20;;;;;;5055243;28;20212;-92
2022/06/12 13:16:02;;;;;;;1.95;1.85;;;33.30;48.90;;;;;;5042380;28;20289;-91
2022/06/12 13:18:44;;;;;;;1.85;1.75;;;33.30;51.10;;;;;;5055688;28;20229;-93
2022/06/12 13:21:19;;;;;;;2.08;1.88;;;33.30;51.00;;;;;;5055409;28;20240;-93
2022/06/12 13:24:03;;;;;;;2.13;1.92;;;33.40;52.10;;;;;;5055484;28;20201;-93
2022/06/12 13:26:35;;;;;;;3.33;2.25;;;33.50;53.20;;;;;;5054879;28;20206;-93
2022/06/12 13:29:05;;;;;;;2.30;2.10;;;33.30;50.70;;;;;;5054659;28;20309;-93
2022/06/12 13:31:35;;;;;;;3.05;2.85;;;33.30;52.20;;;;;;5054888;28;20201;-93
2022/06/12 13:34:04;;;;;;;2.30;2.10;;;33.40;50.80;;;;;;5054449;28;20209;-94
2022/06/12 13:36:37;;;;;;;3.70;2.67;;;33.30;50.00;;;;;;5054628;28;20229;-94
2022/06/12 13:39:18;;;;;;;2.58;2.38;;;33.30;50.30;;;;;;5054328;28;20222;-93
2022/06/12 13:41:53;;;;;;;2.10;1.90;;;33.10;51.10;;;;;;5054345;28;20304;-93
2022/06/12 13:44:25;;;;;;;2.47;2.28;;;32.90;51.20;;;;;;5054549;28;20205;-93
2022/06/12 13:46:57;;;;;;;2.55;2.35;;;32.80;50.90;;;;;;5054537;28;20233;-93
2022/06/12 13:49:36;;;;;;;2.33;2.15;;;32.50;51.00;;;;;;5053882;28;20237;-93
2022/06/12 13:52:14;;;;;;;2.17;1.70;;;32.20;51.80;;;;;;5054067;28;20248;-94
2022/06/12 13:54:44;;;;;;;2.83;2.40;;;32.00;50.60;;;;;;5054377;28;20236;-93
2022/06/12 13:57:16;;;;;;;2.33;2.13;;;31.80;51.50;;;;;;5054440;28;20236;-93
2022/06/12 13:59:47;;;;;;;2.13;2.03;;;32.00;54.10;;;;;;5054262;28;20280;-93
2022/06/12 14:02:21;;;;;;;1.77;1.67;;;32.20;52.80;;;;;;5054017;28;20292;-93
2022/06/12 14:04:56;;;;;;;2.72;2.40;;;31.70;51.40;;;;;;5053874;28;20297;-93
2022/06/12 14:07:28;;;;;;;2.22;2.08;;;31.70;52.50;;;;;;5054222;28;20310;-93
2022/06/12 14:10:01;;;;;;;2.88;2.67;;;31.80;52.50;;;;;;5054261;28;20225;-93
2022/06/12 14:12:34;;;;;;;2.40;2.13;;;31.90;53.30;;;;;;5054020;28;20205;-93
2022/06/12 14:15:03;;;;;;;1.60;1.50;;;31.80;51.80;;;;;;5054430;28;20344;-93
2022/06/12 14:17:34;;;;;;;2.20;2.00;;;31.70;52.30;;;;;;5053308;28;20226;-93
2022/06/12 14:20:06;;;;;;;4.00;2.90;;;31.70;53.50;;;;;;5053380;28;20237;-92
2022/06/12 14:22:43;;;;;;;4.43;2.47;;;31.70;52.80;;;;;;5053574;28;20292;-93
2022/06/12 14:25:23;;;;;;;2.25;2.05;;;31.40;51.50;;;;;;5053960;28;20221;-93
2022/06/12 14:27:59;;;;;;;2.05;1.83;;;31.30;52.40;;;;;;5053715;28;20204;-93
2022/06/12 14:30:44;;;;;;;3.10;2.42;;;31.30;52.00;;;;;;5053396;28;20228;-93
2022/06/12 14:33:31;;;;;;;2.30;2.10;;;31.30;52.50;;;;;;5053586;28;20208;-93
2022/06/12 14:36:00;;;;;;;1.88;1.75;;;31.20;53.00;;;;;;5053393;28;20234;-93
2022/06/12 14:38:31;;;;;;;1.60;1.50;;;31.10;53.20;;;;;;5053443;28;20233;-93
2022/06/12 14:41:00;;;;;;;12.40;1.95;;;31.10;52.80;;;;;;5053342;28;20279;-92
2022/06/12 14:43:31;;;;;;;4.97;2.40;;;30.90;53.40;;;;;;5053067;28;20270;-92
2022/06/12 14:46:13;;;;;;;2.15;2.05;;;30.80;53.80;;;;;;5053252;28;20205;-92
2022/06/12 14:48:44;;;;;;;2.20;2.00;;;30.60;53.70;;;;;;5052804;28;20233;-93
2022/06/12 14:51:13;;;;;;;3.08;1.85;;;30.60;55.10;;;;;;5053189;28;20299;-94
2022/06/12 14:53:41;;;;;;;3.67;2.35;;;30.60;54.50;;;;;;5053141;28;20206;-93
2022/06/12 14:56:15;;;;;;;2.50;2.30;;;30.50;54.50;;;;;;5053129;28;20229;-92
2022/06/12 14:58:44;;;;;;;1.90;1.80;;;30.50;55.40;;;;;;5053162;28;20243;-93
2022/06/12 15:01:16;;;;;;;3.95;1.95;;;30.60;56.90;;;;;;5052148;28;20221;-93
2022/06/12 15:03:47;;;;;;;2.10;2.00;;;30.60;56.20;;;;;;5053203;28;20210;-92
2022/06/12 15:06:16;;;;;;;2.75;1.85;;;30.40;55.80;;;;;;5052752;28;20202;-92
2022/06/12 15:08:45;;;;;;;1.98;1.85;;;30.40;58.30;;;;;;5053340;28;20246;-93
2022/06/12 15:11:17;;;;;;;2.30;2.10;;;30.30;55.20;;;;;;5052577;28;20221;-93
2022/06/12 15:13:47;;;;;;;2.35;2.15;;;30.10;55.80;;;;;;5052663;28;20212;-93
2022/06/12 15:16:16;;;;;;;2.42;2.00;;;29.70;56.70;;;;;;5052618;28;20233;-93
2022/06/12 15:18:46;;;;;;;2.60;2.20;;;29.50;57.00;;;;;;5052702;28;20232;-92
2022/06/12 15:21:16;;;;;;;2.03;1.92;;;29.30;57.70;;;;;;5052059;28;20221;-93
2022/06/12 15:23:45;;;;;;;2.47;2.28;;;29.20;58.30;;;;;;5052275;28;20206;-92
2022/06/12 15:31:48;;;;;;;2.17;1.98;;;29.10;58.70;;;;;;5052903;28;20213;-93
2022/06/12 15:34:30;;;;;;;3.33;2.00;;;29.20;59.20;;;;;;5052393;28;20229;-93